sensor_id;sensor_type;location;lat;lon;timestamp;P1;durP1;ratioP1;P2;durP2;ratioP2
9062;SDS011;4567;42.118;24.746;2022-12-07T00:01:47;21.30;;;14.57;;
9062;SDS011;4567;42.118;24.746;2022-12-07T00:04:15;21.53;;;12.97;;
9062;SDS011;4567;42.118;24.746;2022-12-07T00:06:44;26.20;;;15.90;;
9062;SDS011;4567;42.118;24.746;2022-12-07T00:09:13;25.10;;;16.03;;
9062;SDS011;4567;42.118;24.746;2022-12-07T00:11:41;29.63;;;17.00;;
9062;SDS011;4567;42.118;24.746;2022-12-07T00:14:10;27.13;;;15.87;;
9062;SDS011;4567;42.118;24.746;2022-12-07T00:16:39;27.10;;;14.70;;
9062;SDS011;4567;42.118;24.746;2022-12-07T00:19:06;24.87;;;14.30;;
9062;SDS011;4567;42.118;24.746;2022-12-07T00:21:34;22.03;;;13.13;;
9062;SDS011;4567;42.118;24.746;2022-12-07T00:24:01;20.50;;;13.40;;
9062;SDS011;4567;42.118;24.746;2022-12-07T00:26:31;21.03;;;12.57;;
9062;SDS011;4567;42.118;24.746;2022-12-07T00:29:00;22.77;;;13.67;;
9062;SDS011;4567;42.118;24.746;2022-12-07T00:31:29;24.40;;;12.70;;
9062;SDS011;4567;42.118;24.746;2022-12-07T00:33:58;19.47;;;13.20;;
9062;SDS011;4567;42.118;24.746;2022-12-07T00:36:25;22.93;;;13.30;;
9062;SDS011;4567;42.118;24.746;2022-12-07T00:38:52;17.77;;;12.90;;
9062;SDS011;4567;42.118;24.746;2022-12-07T00:41:20;22.03;;;12.77;;
9062;SDS011;4567;42.118;24.746;2022-12-07T00:43:50;21.73;;;12.90;;
9062;SDS011;4567;42.118;24.746;2022-12-07T00:46:18;20.37;;;12.27;;
9062;SDS011;4567;42.118;24.746;2022-12-07T00:48:46;20.43;;;12.33;;
9062;SDS011;4567;42.118;24.746;2022-12-07T00:51:14;20.53;;;12.13;;
9062;SDS011;4567;42.118;24.746;2022-12-07T00:53:42;16.87;;;11.03;;
9062;SDS011;4567;42.118;24.746;2022-12-07T00:56:10;22.47;;;11.17;;
9062;SDS011;4567;42.118;24.746;2022-12-07T00:58:38;15.50;;;10.77;;
9062;SDS011;4567;42.118;24.746;2022-12-07T01:01:07;16.47;;;10.87;;
9062;SDS011;4567;42.118;24.746;2022-12-07T01:03:35;19.70;;;10.73;;
9062;SDS011;4567;42.118;24.746;2022-12-07T01:06:03;17.73;;;11.57;;
9062;SDS011;4567;42.118;24.746;2022-12-07T01:08:30;24.60;;;11.73;;
9062;SDS011;4567;42.118;24.746;2022-12-07T01:10:57;21.57;;;11.87;;
9062;SDS011;4567;42.118;24.746;2022-12-07T01:13:25;21.60;;;12.30;;
9062;SDS011;4567;42.118;24.746;2022-12-07T01:15:55;22.13;;;12.00;;
9062;SDS011;4567;42.118;24.746;2022-12-07T01:18:24;21.57;;;13.17;;
9062;SDS011;4567;42.118;24.746;2022-12-07T01:20:58;22.03;;;12.50;;
9062;SDS011;4567;42.118;24.746;2022-12-07T01:23:26;20.67;;;12.83;;
9062;SDS011;4567;42.118;24.746;2022-12-07T01:25:54;24.40;;;13.37;;
9062;SDS011;4567;42.118;24.746;2022-12-07T01:28:21;22.40;;;12.10;;
9062;SDS011;4567;42.118;24.746;2022-12-07T01:30:54;22.53;;;12.20;;
9062;SDS011;4567;42.118;24.746;2022-12-07T01:33:22;19.97;;;12.43;;
9062;SDS011;4567;42.118;24.746;2022-12-07T01:35:50;25.57;;;13.20;;
9062;SDS011;4567;42.118;24.746;2022-12-07T01:38:16;24.03;;;13.27;;
9062;SDS011;4567;42.118;24.746;2022-12-07T01:40:43;21.30;;;14.10;;
9062;SDS011;4567;42.118;24.746;2022-12-07T01:43:13;23.70;;;13.17;;
9062;SDS011;4567;42.118;24.746;2022-12-07T01:45:42;25.00;;;13.73;;
9062;SDS011;4567;42.118;24.746;2022-12-07T01:48:09;25.30;;;14.50;;
9062;SDS011;4567;42.118;24.746;2022-12-07T01:50:39;24.10;;;13.97;;
9062;SDS011;4567;42.118;24.746;2022-12-07T01:53:09;20.07;;;12.53;;
9062;SDS011;4567;42.118;24.746;2022-12-07T01:55:37;23.23;;;13.47;;
9062;SDS011;4567;42.118;24.746;2022-12-07T01:58:06;27.07;;;13.43;;
9062;SDS011;4567;42.118;24.746;2022-12-07T02:00:33;20.67;;;13.00;;
9062;SDS011;4567;42.118;24.746;2022-12-07T02:03:01;20.57;;;13.33;;
9062;SDS011;4567;42.118;24.746;2022-12-07T02:05:33;29.20;;;14.23;;
9062;SDS011;4567;42.118;24.746;2022-12-07T02:08:02;23.40;;;14.00;;
9062;SDS011;4567;42.118;24.746;2022-12-07T02:10:31;24.33;;;13.67;;
9062;SDS011;4567;42.118;24.746;2022-12-07T02:12:58;22.43;;;14.30;;
9062;SDS011;4567;42.118;24.746;2022-12-07T02:15:30;21.13;;;13.63;;
9062;SDS011;4567;42.118;24.746;2022-12-07T02:18:06;24.80;;;13.27;;
9062;SDS011;4567;42.118;24.746;2022-12-07T02:20:41;26.47;;;14.10;;
9062;SDS011;4567;42.118;24.746;2022-12-07T02:26:26;22.80;;;14.13;;
9062;SDS011;4567;42.118;24.746;2022-12-07T02:29:14;22.27;;;13.63;;
9062;SDS011;4567;42.118;24.746;2022-12-07T02:31:47;21.67;;;13.43;;
9062;SDS011;4567;42.118;24.746;2022-12-07T02:34:26;18.07;;;12.57;;
9062;SDS011;4567;42.118;24.746;2022-12-07T02:37:00;21.37;;;13.30;;
9062;SDS011;4567;42.118;24.746;2022-12-07T02:39:37;24.97;;;14.10;;
9062;SDS011;4567;42.118;24.746;2022-12-07T02:42:12;20.13;;;13.20;;
9062;SDS011;4567;42.118;24.746;2022-12-07T02:44:45;21.43;;;13.70;;
9062;SDS011;4567;42.118;24.746;2022-12-07T02:47:14;20.00;;;13.47;;
9062;SDS011;4567;42.118;24.746;2022-12-07T02:49:43;23.83;;;14.47;;
9062;SDS011;4567;42.118;24.746;2022-12-07T02:52:11;22.40;;;14.40;;
9062;SDS011;4567;42.118;24.746;2022-12-07T02:54:38;28.03;;;15.13;;
9062;SDS011;4567;42.118;24.746;2022-12-07T02:57:07;25.90;;;15.13;;
9062;SDS011;4567;42.118;24.746;2022-12-07T02:59:53;30.03;;;15.20;;
9062;SDS011;4567;42.118;24.746;2022-12-07T03:02:29;25.80;;;14.17;;
9062;SDS011;4567;42.118;24.746;2022-12-07T03:05:05;23.30;;;13.40;;
9062;SDS011;4567;42.118;24.746;2022-12-07T03:07:39;24.63;;;13.73;;
9062;SDS011;4567;42.118;24.746;2022-12-07T03:10:17;22.03;;;13.73;;
9062;SDS011;4567;42.118;24.746;2022-12-07T03:12:51;24.63;;;14.13;;
9062;SDS011;4567;42.118;24.746;2022-12-07T03:15:29;22.43;;;13.63;;
9062;SDS011;4567;42.118;24.746;2022-12-07T03:17:59;24.27;;;13.23;;
9062;SDS011;4567;42.118;24.746;2022-12-07T03:20:30;24.10;;;14.03;;
9062;SDS011;4567;42.118;24.746;2022-12-07T03:22:58;22.27;;;13.97;;
9062;SDS011;4567;42.118;24.746;2022-12-07T03:25:26;31.57;;;15.43;;
9062;SDS011;4567;42.118;24.746;2022-12-07T03:27:54;22.93;;;14.57;;
9062;SDS011;4567;42.118;24.746;2022-12-07T03:30:28;25.70;;;15.80;;
9062;SDS011;4567;42.118;24.746;2022-12-07T03:32:59;27.13;;;14.70;;
9062;SDS011;4567;42.118;24.746;2022-12-07T03:35:31;25.87;;;15.53;;
9062;SDS011;4567;42.118;24.746;2022-12-07T03:38:04;23.77;;;14.30;;
9062;SDS011;4567;42.118;24.746;2022-12-07T03:40:38;27.17;;;14.60;;
9062;SDS011;4567;42.118;24.746;2022-12-07T03:43:09;29.20;;;15.43;;
9062;SDS011;4567;42.118;24.746;2022-12-07T03:45:39;25.03;;;15.27;;
9062;SDS011;4567;42.118;24.746;2022-12-07T03:48:08;24.90;;;16.90;;
9062;SDS011;4567;42.118;24.746;2022-12-07T03:50:47;27.23;;;18.10;;
9062;SDS011;4567;42.118;24.746;2022-12-07T03:53:19;25.00;;;16.10;;
9062;SDS011;4567;42.118;24.746;2022-12-07T03:55:50;23.87;;;17.33;;
9062;SDS011;4567;42.118;24.746;2022-12-07T03:58:19;29.33;;;18.73;;
9062;SDS011;4567;42.118;24.746;2022-12-07T04:00:49;27.47;;;17.43;;
9062;SDS011;4567;42.118;24.746;2022-12-07T04:03:16;27.97;;;18.73;;
9062;SDS011;4567;42.118;24.746;2022-12-07T04:05:43;30.50;;;18.40;;
9062;SDS011;4567;42.118;24.746;2022-12-07T04:08:10;29.10;;;18.57;;
9062;SDS011;4567;42.118;24.746;2022-12-07T04:10:37;27.80;;;18.70;;
9062;SDS011;4567;42.118;24.746;2022-12-07T04:13:04;24.23;;;16.23;;
9062;SDS011;4567;42.118;24.746;2022-12-07T04:15:31;26.43;;;16.17;;
9062;SDS011;4567;42.118;24.746;2022-12-07T04:17:59;25.37;;;16.40;;
9062;SDS011;4567;42.118;24.746;2022-12-07T04:20:25;25.47;;;17.70;;
9062;SDS011;4567;42.118;24.746;2022-12-07T04:22:52;29.80;;;18.43;;
9062;SDS011;4567;42.118;24.746;2022-12-07T04:25:19;27.03;;;18.37;;
9062;SDS011;4567;42.118;24.746;2022-12-07T04:27:45;29.17;;;18.47;;
9062;SDS011;4567;42.118;24.746;2022-12-07T04:30:12;25.93;;;17.47;;
9062;SDS011;4567;42.118;24.746;2022-12-07T04:32:39;59.27;;;18.40;;
9062;SDS011;4567;42.118;24.746;2022-12-07T04:35:07;28.30;;;16.07;;
9062;SDS011;4567;42.118;24.746;2022-12-07T04:37:34;29.97;;;16.30;;
9062;SDS011;4567;42.118;24.746;2022-12-07T04:40:04;26.23;;;15.80;;
9062;SDS011;4567;42.118;24.746;2022-12-07T04:42:32;26.50;;;15.63;;
9062;SDS011;4567;42.118;24.746;2022-12-07T04:44:59;31.17;;;16.53;;
9062;SDS011;4567;42.118;24.746;2022-12-07T04:47:25;26.43;;;15.73;;
9062;SDS011;4567;42.118;24.746;2022-12-07T04:49:52;27.53;;;15.63;;
9062;SDS011;4567;42.118;24.746;2022-12-07T04:52:20;29.30;;;15.93;;
9062;SDS011;4567;42.118;24.746;2022-12-07T04:54:47;34.23;;;16.83;;
9062;SDS011;4567;42.118;24.746;2022-12-07T04:57:13;28.37;;;16.73;;
9062;SDS011;4567;42.118;24.746;2022-12-07T04:59:40;24.50;;;16.30;;
9062;SDS011;4567;42.118;24.746;2022-12-07T05:02:07;29.17;;;16.63;;
9062;SDS011;4567;42.118;24.746;2022-12-07T05:04:33;33.23;;;17.10;;
9062;SDS011;4567;42.118;24.746;2022-12-07T05:07:00;26.17;;;16.23;;
9062;SDS011;4567;42.118;24.746;2022-12-07T05:09:28;26.60;;;16.50;;
9062;SDS011;4567;42.118;24.746;2022-12-07T05:11:55;57.67;;;17.40;;
9062;SDS011;4567;42.118;24.746;2022-12-07T05:14:21;36.77;;;16.40;;
9062;SDS011;4567;42.118;24.746;2022-12-07T05:16:48;28.73;;;16.17;;
9062;SDS011;4567;42.118;24.746;2022-12-07T05:19:18;38.03;;;16.10;;
9062;SDS011;4567;42.118;24.746;2022-12-07T05:21:45;36.57;;;15.53;;
9062;SDS011;4567;42.118;24.746;2022-12-07T05:24:13;30.63;;;16.70;;
9062;SDS011;4567;42.118;24.746;2022-12-07T05:26:43;41.17;;;17.20;;
9062;SDS011;4567;42.118;24.746;2022-12-07T05:29:10;35.70;;;18.03;;
9062;SDS011;4567;42.118;24.746;2022-12-07T05:31:38;42.43;;;17.67;;
9062;SDS011;4567;42.118;24.746;2022-12-07T05:34:05;53.23;;;16.23;;
9062;SDS011;4567;42.118;24.746;2022-12-07T05:36:32;60.20;;;16.67;;
9062;SDS011;4567;42.118;24.746;2022-12-07T05:38:59;84.53;;;22.53;;
9062;SDS011;4567;42.118;24.746;2022-12-07T05:41:25;48.87;;;17.53;;
9062;SDS011;4567;42.118;24.746;2022-12-07T05:44:11;56.07;;;18.17;;
9062;SDS011;4567;42.118;24.746;2022-12-07T05:46:38;30.13;;;17.07;;
9062;SDS011;4567;42.118;24.746;2022-12-07T05:49:04;38.80;;;15.90;;
9062;SDS011;4567;42.118;24.746;2022-12-07T05:51:31;64.83;;;20.83;;
9062;SDS011;4567;42.118;24.746;2022-12-07T05:53:58;56.60;;;24.17;;
9062;SDS011;4567;42.118;24.746;2022-12-07T05:56:24;62.70;;;20.80;;
9062;SDS011;4567;42.118;24.746;2022-12-07T05:58:52;47.57;;;20.03;;
9062;SDS011;4567;42.118;24.746;2022-12-07T06:01:37;63.87;;;21.63;;
9062;SDS011;4567;42.118;24.746;2022-12-07T06:04:04;54.30;;;20.73;;
9062;SDS011;4567;42.118;24.746;2022-12-07T06:06:31;78.87;;;22.20;;
9062;SDS011;4567;42.118;24.746;2022-12-07T06:08:57;76.90;;;22.13;;
9062;SDS011;4567;42.118;24.746;2022-12-07T06:11:24;67.27;;;22.23;;
9062;SDS011;4567;42.118;24.746;2022-12-07T06:14:08;69.13;;;23.63;;
9062;SDS011;4567;42.118;24.746;2022-12-07T06:16:35;54.70;;;21.53;;
9062;SDS011;4567;42.118;24.746;2022-12-07T06:19:03;62.70;;;24.73;;
9062;SDS011;4567;42.118;24.746;2022-12-07T06:21:29;73.70;;;29.73;;
9062;SDS011;4567;42.118;24.746;2022-12-07T06:23:56;76.03;;;29.13;;
9062;SDS011;4567;42.118;24.746;2022-12-07T06:26:23;81.03;;;25.67;;
9062;SDS011;4567;42.118;24.746;2022-12-07T06:28:49;60.93;;;25.67;;
9062;SDS011;4567;42.118;24.746;2022-12-07T06:31:16;55.77;;;25.43;;
9062;SDS011;4567;42.118;24.746;2022-12-07T06:33:43;64.30;;;26.10;;
9062;SDS011;4567;42.118;24.746;2022-12-07T06:36:11;79.20;;;30.57;;
9062;SDS011;4567;42.118;24.746;2022-12-07T06:38:37;58.93;;;28.30;;
9062;SDS011;4567;42.118;24.746;2022-12-07T06:41:04;61.57;;;29.13;;
9062;SDS011;4567;42.118;24.746;2022-12-07T06:43:32;56.63;;;26.67;;
9062;SDS011;4567;42.118;24.746;2022-12-07T06:45:59;46.47;;;24.27;;
9062;SDS011;4567;42.118;24.746;2022-12-07T06:48:26;59.93;;;26.90;;
9062;SDS011;4567;42.118;24.746;2022-12-07T06:50:52;64.80;;;27.13;;
9062;SDS011;4567;42.118;24.746;2022-12-07T06:53:21;51.43;;;26.77;;
9062;SDS011;4567;42.118;24.746;2022-12-07T06:55:48;64.97;;;31.97;;
9062;SDS011;4567;42.118;24.746;2022-12-07T06:58:14;86.67;;;35.60;;
9062;SDS011;4567;42.118;24.746;2022-12-07T07:00:42;70.63;;;30.10;;
9062;SDS011;4567;42.118;24.746;2022-12-07T07:03:09;76.07;;;33.37;;
9062;SDS011;4567;42.118;24.746;2022-12-07T07:05:35;60.33;;;30.97;;
9062;SDS011;4567;42.118;24.746;2022-12-07T07:08:02;54.17;;;28.23;;
9062;SDS011;4567;42.118;24.746;2022-12-07T07:10:31;53.23;;;29.67;;
9062;SDS011;4567;42.118;24.746;2022-12-07T07:12:58;64.17;;;32.80;;
9062;SDS011;4567;42.118;24.746;2022-12-07T07:15:24;66.13;;;30.87;;
9062;SDS011;4567;42.118;24.746;2022-12-07T07:17:51;52.90;;;28.03;;
9062;SDS011;4567;42.118;24.746;2022-12-07T07:20:18;61.70;;;28.83;;
9062;SDS011;4567;42.118;24.746;2022-12-07T07:22:44;67.17;;;30.27;;
9062;SDS011;4567;42.118;24.746;2022-12-07T07:25:11;67.40;;;29.67;;
9062;SDS011;4567;42.118;24.746;2022-12-07T07:27:39;62.07;;;27.37;;
9062;SDS011;4567;42.118;24.746;2022-12-07T07:30:07;68.50;;;32.07;;
9062;SDS011;4567;42.118;24.746;2022-12-07T07:32:34;69.83;;;35.20;;
9062;SDS011;4567;42.118;24.746;2022-12-07T07:35:01;78.32;;;37.65;;
9062;SDS011;4567;42.118;24.746;2022-12-07T07:37:27;67.10;;;32.87;;
9062;SDS011;4567;42.118;24.746;2022-12-07T07:39:54;61.93;;;31.00;;
9062;SDS011;4567;42.118;24.746;2022-12-07T07:42:21;68.03;;;31.10;;
9062;SDS011;4567;42.118;24.746;2022-12-07T07:44:49;71.90;;;32.83;;
9062;SDS011;4567;42.118;24.746;2022-12-07T07:47:16;61.43;;;31.63;;
9062;SDS011;4567;42.118;24.746;2022-12-07T07:49:43;77.47;;;32.53;;
9062;SDS011;4567;42.118;24.746;2022-12-07T07:52:09;54.27;;;29.87;;
9062;SDS011;4567;42.118;24.746;2022-12-07T07:54:36;61.20;;;31.30;;
9062;SDS011;4567;42.118;24.746;2022-12-07T07:57:03;72.93;;;32.50;;
9062;SDS011;4567;42.118;24.746;2022-12-07T07:59:29;68.57;;;32.73;;
9062;SDS011;4567;42.118;24.746;2022-12-07T08:01:57;64.97;;;34.10;;
9062;SDS011;4567;42.118;24.746;2022-12-07T08:04:24;60.07;;;33.30;;
9062;SDS011;4567;42.118;24.746;2022-12-07T08:06:51;81.87;;;34.13;;
9062;SDS011;4567;42.118;24.746;2022-12-07T08:09:17;69.57;;;33.70;;
9062;SDS011;4567;42.118;24.746;2022-12-07T08:11:44;67.07;;;31.40;;
9062;SDS011;4567;42.118;24.746;2022-12-07T08:14:11;68.80;;;31.07;;
9062;SDS011;4567;42.118;24.746;2022-12-07T08:16:38;63.03;;;31.17;;
9062;SDS011;4567;42.118;24.746;2022-12-07T08:19:06;69.13;;;31.33;;
9062;SDS011;4567;42.118;24.746;2022-12-07T08:21:32;48.83;;;27.53;;
9062;SDS011;4567;42.118;24.746;2022-12-07T08:23:59;57.40;;;28.03;;
9062;SDS011;4567;42.118;24.746;2022-12-07T08:26:26;58.40;;;26.87;;
9062;SDS011;4567;42.118;24.746;2022-12-07T08:28:53;74.43;;;26.47;;
9062;SDS011;4567;42.118;24.746;2022-12-07T08:31:19;58.33;;;23.40;;
9062;SDS011;4567;42.118;24.746;2022-12-07T08:33:46;62.67;;;22.87;;
9062;SDS011;4567;42.118;24.746;2022-12-07T08:36:15;54.20;;;23.60;;
9062;SDS011;4567;42.118;24.746;2022-12-07T08:38:43;45.10;;;23.07;;
9062;SDS011;4567;42.118;24.746;2022-12-07T08:41:10;43.30;;;22.00;;
9062;SDS011;4567;42.118;24.746;2022-12-07T08:43:37;40.27;;;20.33;;
9062;SDS011;4567;42.118;24.746;2022-12-07T08:46:05;40.73;;;21.50;;
9062;SDS011;4567;42.118;24.746;2022-12-07T08:48:35;46.83;;;23.40;;
9062;SDS011;4567;42.118;24.746;2022-12-07T08:51:05;52.67;;;24.37;;
9062;SDS011;4567;42.118;24.746;2022-12-07T08:53:33;44.13;;;23.83;;
9062;SDS011;4567;42.118;24.746;2022-12-07T08:56:01;43.67;;;24.50;;
9062;SDS011;4567;42.118;24.746;2022-12-07T08:58:28;38.57;;;23.60;;
9062;SDS011;4567;42.118;24.746;2022-12-07T09:00:55;46.90;;;24.93;;
9062;SDS011;4567;42.118;24.746;2022-12-07T09:03:22;43.40;;;24.13;;
9062;SDS011;4567;42.118;24.746;2022-12-07T09:05:48;48.07;;;25.23;;
9062;SDS011;4567;42.118;24.746;2022-12-07T09:08:15;41.73;;;25.83;;
9062;SDS011;4567;42.118;24.746;2022-12-07T09:10:43;40.77;;;24.30;;
9062;SDS011;4567;42.118;24.746;2022-12-07T09:13:10;43.90;;;25.77;;
9062;SDS011;4567;42.118;24.746;2022-12-07T09:15:37;47.37;;;25.77;;
9062;SDS011;4567;42.118;24.746;2022-12-07T09:18:03;46.73;;;25.80;;
9062;SDS011;4567;42.118;24.746;2022-12-07T09:20:30;48.40;;;25.90;;
9062;SDS011;4567;42.118;24.746;2022-12-07T09:22:57;45.00;;;25.90;;
9062;SDS011;4567;42.118;24.746;2022-12-07T09:25:24;62.23;;;27.47;;
9062;SDS011;4567;42.118;24.746;2022-12-07T09:27:56;53.77;;;26.10;;
9062;SDS011;4567;42.118;24.746;2022-12-07T09:30:23;52.17;;;26.47;;
9062;SDS011;4567;42.118;24.746;2022-12-07T09:32:50;54.60;;;26.70;;
9062;SDS011;4567;42.118;24.746;2022-12-07T09:35:18;44.20;;;23.83;;
9062;SDS011;4567;42.118;24.746;2022-12-07T09:37:45;40.53;;;23.67;;
9062;SDS011;4567;42.118;24.746;2022-12-07T09:40:12;40.43;;;22.80;;
9062;SDS011;4567;42.118;24.746;2022-12-07T09:42:41;45.30;;;22.07;;
9062;SDS011;4567;42.118;24.746;2022-12-07T09:45:13;43.90;;;23.70;;
9062;SDS011;4567;42.118;24.746;2022-12-07T09:47:42;44.97;;;24.23;;
9062;SDS011;4567;42.118;24.746;2022-12-07T09:50:12;41.80;;;22.90;;
9062;SDS011;4567;42.118;24.746;2022-12-07T09:52:42;52.83;;;24.57;;
9062;SDS011;4567;42.118;24.746;2022-12-07T09:55:11;38.37;;;23.07;;
9062;SDS011;4567;42.118;24.746;2022-12-07T09:57:40;40.33;;;22.53;;
9062;SDS011;4567;42.118;24.746;2022-12-07T10:00:10;34.23;;;21.37;;
9062;SDS011;4567;42.118;24.746;2022-12-07T10:02:42;42.00;;;21.83;;
9062;SDS011;4567;42.118;24.746;2022-12-07T10:05:13;35.83;;;21.60;;
9062;SDS011;4567;42.118;24.746;2022-12-07T10:07:41;42.47;;;21.43;;
9062;SDS011;4567;42.118;24.746;2022-12-07T10:10:13;38.07;;;19.90;;
9062;SDS011;4567;42.118;24.746;2022-12-07T10:12:52;50.47;;;20.70;;
9062;SDS011;4567;42.118;24.746;2022-12-07T10:15:22;36.73;;;19.57;;
9062;SDS011;4567;42.118;24.746;2022-12-07T10:17:49;36.83;;;20.37;;
9062;SDS011;4567;42.118;24.746;2022-12-07T10:20:19;41.60;;;20.27;;
9062;SDS011;4567;42.118;24.746;2022-12-07T10:22:59;40.33;;;22.13;;
9062;SDS011;4567;42.118;24.746;2022-12-07T10:25:28;31.90;;;20.47;;
9062;SDS011;4567;42.118;24.746;2022-12-07T10:28:00;33.40;;;19.33;;
9062;SDS011;4567;42.118;24.746;2022-12-07T10:30:30;37.10;;;19.37;;
9062;SDS011;4567;42.118;24.746;2022-12-07T10:32:58;38.30;;;22.57;;
9062;SDS011;4567;42.118;24.746;2022-12-07T10:35:26;55.43;;;19.17;;
9062;SDS011;4567;42.118;24.746;2022-12-07T10:37:55;33.87;;;18.43;;
9062;SDS011;4567;42.118;24.746;2022-12-07T10:40:25;31.63;;;18.27;;
9062;SDS011;4567;42.118;24.746;2022-12-07T10:43:04;39.10;;;20.90;;
9062;SDS011;4567;42.118;24.746;2022-12-07T10:45:44;31.33;;;17.23;;
9062;SDS011;4567;42.118;24.746;2022-12-07T10:48:34;30.37;;;17.60;;
9062;SDS011;4567;42.118;24.746;2022-12-07T10:51:09;38.90;;;17.70;;
9062;SDS011;4567;42.118;24.746;2022-12-07T10:53:45;32.20;;;16.93;;
9062;SDS011;4567;42.118;24.746;2022-12-07T10:56:27;27.63;;;17.33;;
9062;SDS011;4567;42.118;24.746;2022-12-07T10:59:23;32.53;;;16.93;;
9062;SDS011;4567;42.118;24.746;2022-12-07T11:02:06;25.23;;;16.40;;
9062;SDS011;4567;42.118;24.746;2022-12-07T11:04:52;25.43;;;14.17;;
9062;SDS011;4567;42.118;24.746;2022-12-07T11:07:28;26.50;;;15.43;;
9062;SDS011;4567;42.118;24.746;2022-12-07T11:10:05;23.43;;;15.13;;
9062;SDS011;4567;42.118;24.746;2022-12-07T11:12:42;42.10;;;16.67;;
9062;SDS011;4567;42.118;24.746;2022-12-07T11:15:22;27.60;;;15.90;;
9062;SDS011;4567;42.118;24.746;2022-12-07T11:17:56;28.37;;;15.93;;
9062;SDS011;4567;42.118;24.746;2022-12-07T11:20:34;28.63;;;17.30;;
9062;SDS011;4567;42.118;24.746;2022-12-07T11:23:12;28.43;;;17.50;;
9062;SDS011;4567;42.118;24.746;2022-12-07T11:25:47;33.47;;;18.40;;
9062;SDS011;4567;42.118;24.746;2022-12-07T11:28:23;33.00;;;17.87;;
9062;SDS011;4567;42.118;24.746;2022-12-07T11:31:03;35.13;;;17.17;;
9062;SDS011;4567;42.118;24.746;2022-12-07T11:33:40;27.50;;;17.00;;
9062;SDS011;4567;42.118;24.746;2022-12-07T11:36:16;25.13;;;17.10;;
9062;SDS011;4567;42.118;24.746;2022-12-07T11:38:54;31.03;;;16.67;;
9062;SDS011;4567;42.118;24.746;2022-12-07T11:41:27;34.03;;;16.87;;
9062;SDS011;4567;42.118;24.746;2022-12-07T11:43:59;29.17;;;17.70;;
9062;SDS011;4567;42.118;24.746;2022-12-07T11:46:35;25.27;;;16.30;;
9062;SDS011;4567;42.118;24.746;2022-12-07T11:49:15;28.03;;;16.70;;
9062;SDS011;4567;42.118;24.746;2022-12-07T11:51:50;27.47;;;16.23;;
9062;SDS011;4567;42.118;24.746;2022-12-07T11:54:21;30.67;;;17.00;;
9062;SDS011;4567;42.118;24.746;2022-12-07T11:56:53;29.10;;;17.20;;
9062;SDS011;4567;42.118;24.746;2022-12-07T11:59:23;26.87;;;17.97;;
9062;SDS011;4567;42.118;24.746;2022-12-07T12:01:57;32.00;;;19.13;;
9062;SDS011;4567;42.118;24.746;2022-12-07T12:04:32;33.77;;;18.97;;
9062;SDS011;4567;42.118;24.746;2022-12-07T12:07:10;34.87;;;18.20;;
9062;SDS011;4567;42.118;24.746;2022-12-07T12:09:43;37.57;;;19.83;;
9062;SDS011;4567;42.118;24.746;2022-12-07T12:12:21;28.37;;;18.87;;
9062;SDS011;4567;42.118;24.746;2022-12-07T12:15:09;33.20;;;18.60;;
9062;SDS011;4567;42.118;24.746;2022-12-07T12:20:57;175.93;;;28.33;;
9062;SDS011;4567;42.118;24.746;2022-12-07T12:23:29;41.63;;;18.53;;
9062;SDS011;4567;42.118;24.746;2022-12-07T12:26:03;32.20;;;18.63;;
9062;SDS011;4567;42.118;24.746;2022-12-07T12:28:34;30.63;;;18.37;;
9062;SDS011;4567;42.118;24.746;2022-12-07T12:31:07;31.23;;;17.60;;
9062;SDS011;4567;42.118;24.746;2022-12-07T12:33:41;26.43;;;17.00;;
9062;SDS011;4567;42.118;24.746;2022-12-07T12:36:20;25.97;;;16.07;;
9062;SDS011;4567;42.118;24.746;2022-12-07T12:38:51;28.13;;;17.23;;
9062;SDS011;4567;42.118;24.746;2022-12-07T12:41:53;29.43;;;16.67;;
9062;SDS011;4567;42.118;24.746;2022-12-07T12:44:41;87.67;;;20.70;;
9062;SDS011;4567;42.118;24.746;2022-12-07T12:47:39;46.23;;;18.80;;
9062;SDS011;4567;42.118;24.746;2022-12-07T12:50:22;32.80;;;18.10;;
9062;SDS011;4567;42.118;24.746;2022-12-07T12:52:56;36.27;;;17.70;;
9062;SDS011;4567;42.118;24.746;2022-12-07T12:58:31;27.47;;;16.10;;
9062;SDS011;4567;42.118;24.746;2022-12-07T13:04:17;27.17;;;15.43;;
9062;SDS011;4567;42.118;24.746;2022-12-07T13:06:58;29.10;;;16.27;;
9062;SDS011;4567;42.118;24.746;2022-12-07T13:09:27;33.20;;;15.27;;
9062;SDS011;4567;42.118;24.746;2022-12-07T13:11:58;26.20;;;15.53;;
9062;SDS011;4567;42.118;24.746;2022-12-07T13:14:37;29.77;;;15.70;;
9062;SDS011;4567;42.118;24.746;2022-12-07T13:17:10;30.90;;;16.03;;
9062;SDS011;4567;42.118;24.746;2022-12-07T13:25:22;30.20;;;15.57;;
9062;SDS011;4567;42.118;24.746;2022-12-07T13:27:57;25.57;;;14.73;;
9062;SDS011;4567;42.118;24.746;2022-12-07T13:30:27;31.90;;;16.00;;
9062;SDS011;4567;42.118;24.746;2022-12-07T13:32:56;28.53;;;16.13;;
9062;SDS011;4567;42.118;24.746;2022-12-07T13:35:28;26.03;;;14.93;;
9062;SDS011;4567;42.118;24.746;2022-12-07T13:38:00;31.77;;;15.77;;
9062;SDS011;4567;42.118;24.746;2022-12-07T13:40:31;27.93;;;15.17;;
9062;SDS011;4567;42.118;24.746;2022-12-07T13:42:58;32.50;;;17.17;;
9062;SDS011;4567;42.118;24.746;2022-12-07T13:45:26;28.13;;;16.30;;
9062;SDS011;4567;42.118;24.746;2022-12-07T13:48:08;31.10;;;16.10;;
9062;SDS011;4567;42.118;24.746;2022-12-07T13:50:40;28.60;;;15.70;;
9062;SDS011;4567;42.118;24.746;2022-12-07T13:53:10;23.60;;;15.00;;
9062;SDS011;4567;42.118;24.746;2022-12-07T13:55:45;26.47;;;15.50;;
9062;SDS011;4567;42.118;24.746;2022-12-07T13:58:12;29.33;;;15.80;;
9062;SDS011;4567;42.118;24.746;2022-12-07T14:00:40;28.37;;;15.63;;
9062;SDS011;4567;42.118;24.746;2022-12-07T14:03:22;24.27;;;15.70;;
9062;SDS011;4567;42.118;24.746;2022-12-07T14:06:03;23.10;;;14.60;;
9062;SDS011;4567;42.118;24.746;2022-12-07T14:08:39;29.13;;;15.67;;
9062;SDS011;4567;42.118;24.746;2022-12-07T14:11:07;26.37;;;16.03;;
9062;SDS011;4567;42.118;24.746;2022-12-07T14:13:40;27.50;;;16.17;;
9062;SDS011;4567;42.118;24.746;2022-12-07T14:16:18;29.10;;;15.57;;
9062;SDS011;4567;42.118;24.746;2022-12-07T14:18:50;36.57;;;16.97;;
9062;SDS011;4567;42.118;24.746;2022-12-07T14:21:19;38.13;;;15.67;;
9062;SDS011;4567;42.118;24.746;2022-12-07T14:24:02;41.33;;;17.53;;
9062;SDS011;4567;42.118;24.746;2022-12-07T14:26:36;38.27;;;15.83;;
9062;SDS011;4567;42.118;24.746;2022-12-07T14:29:19;47.87;;;17.33;;
9062;SDS011;4567;42.118;24.746;2022-12-07T14:31:47;40.63;;;17.70;;
9062;SDS011;4567;42.118;24.746;2022-12-07T14:34:14;45.63;;;18.60;;
9062;SDS011;4567;42.118;24.746;2022-12-07T14:36:41;57.33;;;19.07;;
9062;SDS011;4567;42.118;24.746;2022-12-07T14:39:08;53.60;;;19.73;;
9062;SDS011;4567;42.118;24.746;2022-12-07T14:41:36;51.63;;;19.73;;
9062;SDS011;4567;42.118;24.746;2022-12-07T14:44:18;77.20;;;20.03;;
9062;SDS011;4567;42.118;24.746;2022-12-07T14:46:46;48.83;;;19.20;;
9062;SDS011;4567;42.118;24.746;2022-12-07T14:49:13;76.20;;;25.37;;
9062;SDS011;4567;42.118;24.746;2022-12-07T14:51:40;47.27;;;19.73;;
9062;SDS011;4567;42.118;24.746;2022-12-07T14:54:11;50.80;;;20.27;;
9062;SDS011;4567;42.118;24.746;2022-12-07T14:56:43;47.33;;;18.87;;
9062;SDS011;4567;42.118;24.746;2022-12-07T14:59:11;46.53;;;19.93;;
9062;SDS011;4567;42.118;24.746;2022-12-07T15:01:38;57.83;;;19.50;;
9062;SDS011;4567;42.118;24.746;2022-12-07T15:04:05;46.47;;;18.47;;
9062;SDS011;4567;42.118;24.746;2022-12-07T15:06:31;40.33;;;18.57;;
9062;SDS011;4567;42.118;24.746;2022-12-07T15:08:58;68.90;;;19.57;;
9062;SDS011;4567;42.118;24.746;2022-12-07T15:11:25;70.87;;;22.00;;